Time;durP1;ratioP1;P1;durP2;ratioP2;P2;SDS_P1;SDS_P2;PMS_P1;PMS_P2;Temp;Humidity;BMP_temperature;BMP_pressure;BME280_temperature;BME280_humidity;BME280_pressure;Samples;Min_cycle;Max_cycle;Signal;HPM_P1;HPM_P2
2022/11/13 00:01:52;;;;;;;23.60;15.95;;;5.90;99.90;;;;;;5076927;28;20076;-66
2022/11/13 00:04:17;;;;;;;24.40;15.85;;;5.90;99.90;;;;;;5070213;28;20124;-66
2022/11/13 00:06:43;;;;;;;26.77;16.65;;;5.90;99.90;;;;;;5060174;28;20047;-66
2022/11/13 00:09:10;;;;;;;27.02;17.17;;;5.90;99.90;;;;;;5068652;28;20040;-66
2022/11/13 00:11:36;;;;;;;26.63;17.67;;;6.00;99.90;;;;;;5071836;28;20037;-66
2022/11/13 00:14:02;;;;;;;26.10;17.00;;;6.10;99.90;;;;;;5083491;28;20045;-66
2022/11/13 00:16:28;;;;;;;29.08;18.33;;;6.10;99.90;;;;;;5067110;28;20043;-66
2022/11/13 00:18:53;;;;;;;28.20;18.25;;;6.20;99.90;;;;;;5073237;28;20040;-66
2022/11/13 00:21:22;;;;;;;29.60;18.48;;;6.20;99.90;;;;;;5071093;28;20052;-66
2022/11/13 00:23:48;;;;;;;32.30;18.70;;;6.30;99.90;;;;;;5058674;28;20086;-66
2022/11/13 00:26:18;;;;;;;30.25;16.77;;;6.30;99.90;;;;;;5070142;28;20418;-66
2022/11/13 00:28:44;;;;;;;28.52;17.95;;;6.30;99.90;;;;;;5073719;28;20072;-66
2022/11/13 00:31:13;;;;;;;34.50;18.77;;;6.40;99.90;;;;;;5067182;28;20033;-66
2022/11/13 00:33:38;;;;;;;28.88;18.55;;;6.40;99.90;;;;;;5088013;28;20047;-66
2022/11/13 00:36:07;;;;;;;32.08;18.73;;;6.40;99.90;;;;;;5083772;28;20048;-66
2022/11/13 00:38:34;;;;;;;26.05;17.30;;;6.40;99.90;;;;;;5082855;28;20149;-66
2022/11/13 00:41:00;;;;;;;28.85;17.63;;;6.40;99.90;;;;;;5062340;28;20138;-66
2022/11/13 00:43:26;;;;;;;30.17;17.98;;;6.40;99.90;;;;;;5068178;28;20503;-66
2022/11/13 00:45:52;;;;;;;31.48;18.90;;;6.40;99.90;;;;;;5092371;28;20067;-66
2022/11/13 00:48:17;;;;;;;32.25;18.33;;;6.50;99.90;;;;;;5076142;28;20130;-66
2022/11/13 00:50:43;;;;;;;28.75;18.58;;;6.50;99.90;;;;;;5070168;28;20042;-66
2022/11/13 00:53:09;;;;;;;30.20;17.83;;;6.40;99.90;;;;;;5081901;28;20047;-66
2022/11/13 00:55:35;;;;;;;27.50;17.40;;;6.40;99.90;;;;;;5074070;28;20029;-66
2022/11/13 00:58:00;;;;;;;26.13;17.30;;;6.40;99.90;;;;;;5060940;28;20483;-66
2022/11/13 01:00:26;;;;;;;32.42;18.58;;;6.40;99.90;;;;;;5067935;28;20124;-66
2022/11/13 01:02:52;;;;;;;30.70;18.58;;;6.50;99.90;;;;;;5073425;28;20071;-66
2022/11/13 01:05:17;;;;;;;29.98;19.23;;;6.70;99.90;;;;;;5067432;28;20039;-66
2022/11/13 01:07:43;;;;;;;33.85;18.80;;;6.80;99.90;;;;;;5079563;28;20082;-66
2022/11/13 01:10:09;;;;;;;32.20;19.73;;;6.90;99.90;;;;;;5083678;28;20042;-66
2022/11/13 01:12:34;;;;;;;31.00;19.13;;;6.90;99.90;;;;;;5088161;28;20065;-66
2022/11/13 01:15:00;;;;;;;29.80;19.23;;;6.90;99.90;;;;;;5067712;28;20045;-66
2022/11/13 01:17:26;;;;;;;33.78;19.45;;;7.00;99.90;;;;;;5073737;28;20080;-66
2022/11/13 01:19:52;;;;;;;30.08;19.20;;;7.00;99.90;;;;;;5073619;28;20041;-66
2022/11/13 01:22:17;;;;;;;30.35;19.48;;;7.00;99.90;;;;;;5069563;28;20441;-66
2022/11/13 01:24:43;;;;;;;30.02;19.52;;;7.00;99.90;;;;;;5062616;28;20045;-66
2022/11/13 01:27:08;;;;;;;31.48;19.88;;;7.00;99.90;;;;;;5073335;28;20047;-66
2022/11/13 01:29:36;;;;;;;31.17;19.13;;;7.00;99.90;;;;;;5066289;28;20048;-66
2022/11/13 01:32:01;;;;;;;30.10;18.90;;;7.00;99.90;;;;;;5060924;28;20044;-66
2022/11/13 01:34:27;;;;;;;32.90;19.80;;;7.00;99.90;;;;;;5073348;28;20036;-66
2022/11/13 01:36:52;;;;;;;29.30;19.50;;;7.00;99.90;;;;;;5073354;28;20170;-66
2022/11/13 01:39:18;;;;;;;30.58;19.67;;;7.10;99.90;;;;;;5067433;28;20039;-66
2022/11/13 01:41:43;;;;;;;31.42;19.73;;;7.10;99.90;;;;;;5067677;28;20465;-66
2022/11/13 01:44:12;;;;;;;32.22;20.42;;;7.10;99.90;;;;;;5072925;28;20037;-66
2022/11/13 01:46:41;;;;;;;32.55;20.20;;;7.10;99.90;;;;;;5070128;28;20059;-66
2022/11/13 01:49:09;;;;;;;33.55;20.70;;;7.10;99.90;;;;;;5064641;28;20657;-66
2022/11/13 01:51:44;;;;;;;33.67;20.02;;;7.20;99.90;;;;;;5072424;28;20499;-66
2022/11/13 01:54:19;;;;;;;35.28;20.73;;;7.20;99.90;;;;;;5083942;28;20494;-66
2022/11/13 01:56:45;;;;;;;31.55;20.10;;;7.20;99.90;;;;;;5063348;28;20041;-66
2022/11/13 01:59:21;;;;;;;32.70;20.48;;;7.20;99.90;;;;;;5072691;28;20029;-66
2022/11/13 02:01:47;;;;;;;33.28;20.17;;;7.10;99.90;;;;;;5072501;28;20040;-66
2022/11/13 02:04:13;;;;;;;32.80;19.85;;;7.10;99.90;;;;;;5068042;28;20029;-66
2022/11/13 02:06:48;;;;;;;30.50;20.58;;;7.10;99.90;;;;;;5080206;28;20425;-66
2022/11/13 02:09:16;;;;;;;32.55;20.67;;;7.00;99.90;;;;;;5052611;28;20044;-66
2022/11/13 02:11:43;;;;;;;33.72;20.42;;;7.00;99.90;;;;;;5052443;28;20055;-65
2022/11/13 02:14:10;;;;;;;37.13;19.60;;;7.00;99.90;;;;;;5062504;28;20495;-66
2022/11/13 02:16:37;;;;;;;31.30;19.77;;;7.00;99.90;;;;;;5069467;28;20033;-66
2022/11/13 02:19:09;;;;;;;31.55;19.73;;;7.00;99.90;;;;;;5079344;28;20426;-66
2022/11/13 02:21:45;;;;;;;34.30;20.80;;;7.00;99.90;;;;;;5059130;28;20128;-66
2022/11/13 02:24:20;;;;;;;30.95;20.30;;;7.00;99.90;;;;;;5064571;28;20044;-66
2022/11/13 02:26:49;;;;;;;34.05;21.02;;;6.90;99.90;;;;;;5072675;28;20094;-66
2022/11/13 02:29:15;;;;;;;30.77;20.13;;;6.90;99.90;;;;;;5062286;28;20495;-66
2022/11/13 02:31:40;;;;;;;31.08;20.00;;;6.80;99.90;;;;;;5071432;28;20043;-66
2022/11/13 02:34:06;;;;;;;32.97;20.17;;;6.80;99.90;;;;;;5072117;28;20111;-66
2022/11/13 02:36:32;;;;;;;30.15;18.73;;;6.70;99.90;;;;;;5058919;28;20103;-66
2022/11/13 02:39:01;;;;;;;28.55;19.02;;;6.60;99.90;;;;;;5056453;28;20125;-66
2022/11/13 02:41:27;;;;;;;29.45;19.48;;;6.50;99.90;;;;;;5071343;28;20033;-66
2022/11/13 02:43:52;;;;;;;31.40;20.30;;;6.50;99.90;;;;;;5072173;28;20051;-66
2022/11/13 02:46:18;;;;;;;30.45;19.48;;;6.50;99.90;;;;;;5063611;28;20032;-66
2022/11/13 02:48:43;;;;;;;33.55;20.65;;;6.30;99.90;;;;;;5070268;28;20037;-66
2022/11/13 02:51:09;;;;;;;29.20;19.08;;;6.30;99.90;;;;;;5071473;28;20044;-66
2022/11/13 02:53:35;;;;;;;29.58;19.38;;;6.30;99.90;;;;;;5059774;28;20388;-66
2022/11/13 02:56:00;;;;;;;32.15;20.17;;;6.30;99.90;;;;;;5070640;28;20044;-66
2022/11/13 02:58:26;;;;;;;37.10;21.38;;;6.30;99.90;;;;;;5071473;28;20029;-66
2022/11/13 03:00:51;;;;;;;35.10;21.20;;;6.40;99.90;;;;;;5075846;28;20033;-66
2022/11/13 03:03:17;;;;;;;35.28;21.23;;;6.40;99.90;;;;;;5070834;28;20028;-65
2022/11/13 03:05:47;;;;;;;32.97;20.73;;;6.40;99.90;;;;;;5071508;28;20070;-66
2022/11/13 03:08:13;;;;;;;31.30;20.50;;;6.40;99.90;;;;;;5071993;28;20040;-65
2022/11/13 03:10:38;;;;;;;34.35;20.63;;;6.30;99.90;;;;;;5056494;28;20657;-66
2022/11/13 03:13:04;;;;;;;32.47;20.98;;;6.30;99.90;;;;;;5070462;28;20055;-66
2022/11/13 03:15:30;;;;;;;33.03;20.40;;;6.40;99.90;;;;;;5071391;28;20418;-66
2022/11/13 03:17:55;;;;;;;30.17;20.02;;;6.30;99.90;;;;;;5071539;28;20067;-66
2022/11/13 03:20:21;;;;;;;31.67;20.55;;;6.30;99.90;;;;;;5060789;28;20656;-66
2022/11/13 03:22:46;;;;;;;33.97;21.20;;;6.40;99.90;;;;;;5074254;28;20044;-66
2022/11/13 03:25:12;;;;;;;31.02;20.42;;;6.40;99.90;;;;;;5070287;28;20510;-66
2022/11/13 03:27:37;;;;;;;35.28;20.60;;;6.40;99.90;;;;;;5052480;28;20045;-66
2022/11/13 03:30:05;;;;;;;30.88;20.23;;;6.40;99.90;;;;;;5070462;28;20033;-66
2022/11/13 03:32:30;;;;;;;33.53;20.48;;;6.40;99.90;;;;;;5070749;28;20040;-66
2022/11/13 03:34:56;;;;;;;32.85;20.67;;;6.40;99.90;;;;;;5062620;28;20037;-66
2022/11/13 03:37:21;;;;;;;34.83;21.05;;;6.40;99.90;;;;;;5070120;28;20077;-66
2022/11/13 03:39:47;;;;;;;32.70;20.13;;;6.30;99.90;;;;;;5071188;28;20078;-66
2022/11/13 03:42:13;;;;;;;32.90;20.55;;;6.40;99.90;;;;;;5071204;28;20045;-66
2022/11/13 03:44:38;;;;;;;33.72;19.60;;;6.30;99.90;;;;;;5060481;28;20514;-66
2022/11/13 03:47:04;;;;;;;30.65;20.10;;;6.40;99.90;;;;;;5070515;28;20055;-66
2022/11/13 03:49:29;;;;;;;33.70;19.88;;;6.40;99.90;;;;;;5076107;28;20051;-66
2022/11/13 03:51:55;;;;;;;31.67;20.55;;;6.40;99.90;;;;;;5071753;28;20483;-66
2022/11/13 03:54:20;;;;;;;33.83;20.75;;;6.40;99.90;;;;;;5074968;28;20512;-66
2022/11/13 03:56:46;;;;;;;36.42;21.30;;;6.40;99.90;;;;;;5075032;28;20433;-66
2022/11/13 03:59:11;;;;;;;38.08;22.48;;;6.50;99.90;;;;;;5072651;28;20048;-66
2022/11/13 04:01:37;;;;;;;34.78;21.17;;;6.50;99.90;;;;;;5069264;28;20033;-66
2022/11/13 04:04:03;;;;;;;34.33;21.05;;;6.50;99.90;;;;;;5073709;28;20074;-66
2022/11/13 04:06:28;;;;;;;37.13;21.23;;;6.50;99.90;;;;;;5075343;28;20599;-66
2022/11/13 04:08:54;;;;;;;35.10;20.23;;;6.50;99.90;;;;;;5068648;28;20045;-66
2022/11/13 04:11:20;;;;;;;34.92;20.70;;;6.50;99.90;;;;;;5072310;28;20056;-66
2022/11/13 04:13:45;;;;;;;32.40;20.63;;;6.50;99.90;;;;;;5074416;28;20033;-66
2022/11/13 04:16:11;;;;;;;32.78;20.80;;;6.50;99.90;;;;;;5068564;28;20032;-65
2022/11/13 04:18:36;;;;;;;37.33;20.48;;;6.50;99.90;;;;;;5067359;28;20480;-65
2022/11/13 04:21:04;;;;;;;30.67;20.15;;;6.50;99.90;;;;;;5073318;28;20109;-66
2022/11/13 04:23:30;;;;;;;35.47;20.77;;;6.40;99.90;;;;;;5075028;28;20089;-66
2022/11/13 04:25:56;;;;;;;33.60;20.20;;;6.40;99.90;;;;;;5069456;28;20487;-66
2022/11/13 04:28:22;;;;;;;34.15;20.25;;;6.40;99.90;;;;;;5070350;28;20090;-66
2022/11/13 04:30:48;;;;;;;32.95;20.25;;;6.30;99.90;;;;;;5073923;28;20494;-66
2022/11/13 04:33:14;;;;;;;34.33;20.73;;;6.30;99.90;;;;;;5060488;28;20794;-66
2022/11/13 04:35:44;;;;;;;33.28;20.45;;;6.30;99.90;;;;;;5073867;28;20545;-66
2022/11/13 04:38:10;;;;;;;34.78;20.05;;;6.30;99.90;;;;;;5074055;28;20040;-66
2022/11/13 04:40:35;;;;;;;32.70;20.95;;;6.30;99.90;;;;;;5074426;28;20043;-66
2022/11/13 04:43:02;;;;;;;33.78;21.02;;;6.30;99.90;;;;;;5061490;28;20076;-66
2022/11/13 04:45:28;;;;;;;35.47;21.75;;;6.30;99.90;;;;;;5061811;28;20040;-66
2022/11/13 04:47:53;;;;;;;35.22;21.20;;;6.40;99.90;;;;;;5073944;28;20079;-66
2022/11/13 04:50:19;;;;;;;37.28;20.55;;;6.40;99.90;;;;;;5068101;28;20036;-66
2022/11/13 04:52:45;;;;;;;33.13;19.90;;;6.30;99.90;;;;;;5073537;28;20090;-66
2022/11/13 04:55:11;;;;;;;33.28;20.55;;;6.30;99.90;;;;;;5074043;28;20032;-66
2022/11/13 04:57:38;;;;;;;37.00;21.10;;;6.20;99.90;;;;;;5065035;28;20041;-66
2022/11/13 05:00:08;;;;;;;33.90;20.38;;;6.20;99.90;;;;;;5067492;28;20039;-66
2022/11/13 05:02:35;;;;;;;33.45;19.70;;;6.20;99.90;;;;;;5071389;28;20166;-66
2022/11/13 05:05:00;;;;;;;30.88;20.45;;;6.10;99.90;;;;;;5074129;28;20062;-66
2022/11/13 05:07:26;;;;;;;37.38;20.92;;;6.10;99.90;;;;;;5056548;28;20104;-66
2022/11/13 05:09:52;;;;;;;32.05;20.23;;;6.10;99.90;;;;;;5073135;28;20455;-66
2022/11/13 05:12:18;;;;;;;33.55;21.27;;;6.10;99.90;;;;;;5093214;28;20564;-66
2022/11/13 05:14:44;;;;;;;34.08;20.88;;;6.10;99.90;;;;;;5093520;28;20043;-66
2022/11/13 05:17:11;;;;;;;33.97;21.33;;;6.10;99.90;;;;;;5070563;28;20032;-66
2022/11/13 05:19:37;;;;;;;33.88;20.52;;;6.10;99.90;;;;;;5069221;28;20036;-66
2022/11/13 05:22:04;;;;;;;33.58;20.50;;;6.10;99.90;;;;;;5073257;28;20494;-66
2022/11/13 05:24:30;;;;;;;33.70;20.70;;;6.10;99.90;;;;;;5065683;28;20102;-66
2022/11/13 05:26:56;;;;;;;31.98;20.33;;;6.10;99.90;;;;;;5073016;28;20040;-66
2022/11/13 05:29:21;;;;;;;35.05;20.77;;;6.10;99.90;;;;;;5061440;28;20406;-66
2022/11/13 05:31:47;;;;;;;34.30;20.33;;;6.10;99.90;;;;;;5064343;28;20068;-66
2022/11/13 05:34:13;;;;;;;31.10;19.10;;;6.10;99.90;;;;;;5081058;28;20032;-66
2022/11/13 05:36:39;;;;;;;33.17;19.63;;;6.00;99.90;;;;;;5079499;28;20442;-66
2022/11/13 05:39:05;;;;;;;30.63;19.52;;;5.80;99.90;;;;;;5072007;28;20065;-66
2022/11/13 05:41:31;;;;;;;25.67;16.83;;;5.60;99.90;;;;;;5061008;28;20045;-65
2022/11/13 05:43:57;;;;;;;27.92;17.30;;;5.40;99.90;;;;;;5070423;28;20093;-66
2022/11/13 05:46:25;;;;;;;26.13;16.48;;;5.20;99.90;;;;;;5072667;28;20041;-66
2022/11/13 05:48:53;;;;;;;28.45;17.10;;;5.10;99.90;;;;;;5068866;28;20410;-65
2022/11/13 05:51:31;;;;;;;29.05;18.15;;;5.00;99.90;;;;;;5062491;28;20048;-65
2022/11/13 05:53:58;;;;;;;29.45;18.38;;;5.00;99.90;;;;;;5075645;28;20040;-65
2022/11/13 05:56:27;;;;;;;28.55;17.98;;;5.10;99.90;;;;;;5065584;28;20128;-67
2022/11/13 05:58:54;;;;;;;31.13;19.30;;;5.10;99.90;;;;;;5071952;28;20045;-65
2022/11/13 06:01:26;;;;;;;32.92;19.25;;;5.10;99.90;;;;;;5072360;28;20036;-65
2022/11/13 06:03:53;;;;;;;28.92;18.60;;;5.10;99.90;;;;;;5072652;28;20425;-65
2022/11/13 06:06:20;;;;;;;29.95;19.15;;;5.10;99.90;;;;;;5061189;28;20361;-66
2022/11/13 06:08:47;;;;;;;32.80;20.02;;;5.10;99.90;;;;;;5070340;28;20102;-66
2022/11/13 06:11:19;;;;;;;32.13;20.52;;;5.10;99.90;;;;;;5071482;28;20150;-65
2022/11/13 06:13:45;;;;;;;32.33;20.77;;;5.30;99.90;;;;;;5057589;28;20596;-65
2022/11/13 06:16:13;;;;;;;33.30;21.15;;;5.40;99.90;;;;;;5069762;28;20051;-66
2022/11/13 06:18:40;;;;;;;36.88;21.40;;;5.50;99.90;;;;;;5072520;28;20036;-66
2022/11/13 06:21:08;;;;;;;34.63;20.70;;;5.50;99.90;;;;;;5071970;28;20041;-65
2022/11/13 06:23:36;;;;;;;34.25;20.02;;;5.60;99.90;;;;;;5057826;28;20065;-65
2022/11/13 06:26:07;;;;;;;37.70;21.27;;;5.60;99.90;;;;;;5065683;28;20036;-65
2022/11/13 06:28:33;;;;;;;31.70;20.38;;;5.50;99.90;;;;;;5071858;28;20453;-67
2022/11/13 06:31:11;;;;;;;32.97;20.30;;;5.50;99.90;;;;;;5059892;28;20527;-65
2022/11/13 06:33:37;;;;;;;35.45;19.85;;;5.50;99.90;;;;;;5076809;28;20379;-64
2022/11/13 06:36:06;;;;;;;33.38;20.30;;;5.40;99.90;;;;;;5080298;28;20128;-67
2022/11/13 06:38:34;;;;;;;32.08;19.65;;;5.40;99.90;;;;;;5080539;28;20033;-65
2022/11/13 06:41:00;;;;;;;33.65;20.38;;;5.50;99.90;;;;;;5075443;28;20036;-66
2022/11/13 06:43:26;;;;;;;31.48;19.90;;;5.50;99.90;;;;;;5080585;28;20035;-65
2022/11/13 06:45:53;;;;;;;34.50;19.83;;;5.50;99.90;;;;;;5078677;28;20078;-65
2022/11/13 06:48:18;;;;;;;26.48;17.08;;;5.40;99.90;;;;;;5080534;28;20043;-65
2022/11/13 06:50:44;;;;;;;25.25;15.95;;;5.20;99.90;;;;;;5071588;28;20128;-66
2022/11/13 06:53:10;;;;;;;28.02;15.85;;;5.00;99.90;;;;;;5072107;28;20112;-65
2022/11/13 06:55:40;;;;;;;31.60;17.35;;;4.70;99.90;;;;;;5059668;28;20118;-64
2022/11/13 06:58:06;;;;;;;27.63;17.27;;;4.60;99.90;;;;;;5070717;28;20099;-65
2022/11/13 07:00:31;;;;;;;29.02;17.50;;;4.50;99.90;;;;;;5065099;28;20512;-65
2022/11/13 07:02:57;;;;;;;26.90;16.77;;;4.50;99.90;;;;;;5064927;28;20134;-65
2022/11/13 07:05:23;;;;;;;25.55;16.35;;;4.40;99.90;;;;;;5068243;28;20810;-66
2022/11/13 07:07:48;;;;;;;27.65;17.25;;;4.40;99.90;;;;;;5071569;28;20040;-65
2022/11/13 07:10:14;;;;;;;26.90;16.85;;;4.30;99.90;;;;;;5058043;28;20036;-65
2022/11/13 07:12:40;;;;;;;33.60;18.27;;;4.30;99.90;;;;;;5066952;28;20663;-65
2022/11/13 07:15:06;;;;;;;29.15;17.77;;;4.30;99.90;;;;;;5070071;28;20064;-65
2022/11/13 07:17:31;;;;;;;31.83;18.35;;;4.40;99.90;;;;;;5071419;28;20179;-65
2022/11/13 07:19:57;;;;;;;30.95;19.33;;;4.50;99.90;;;;;;5061705;28;20049;-65
2022/11/13 07:22:22;;;;;;;30.20;19.05;;;4.60;99.90;;;;;;5059242;28;20039;-65
2022/11/13 07:24:48;;;;;;;33.13;19.90;;;4.80;99.90;;;;;;5068945;28;20087;-64
2022/11/13 07:27:14;;;;;;;36.28;20.48;;;5.00;99.90;;;;;;5084209;28;20587;-65
2022/11/13 07:29:39;;;;;;;34.58;20.60;;;5.10;99.90;;;;;;5069285;28;20055;-64
2022/11/13 07:32:05;;;;;;;35.03;20.98;;;5.20;99.90;;;;;;5073284;28;20028;-66
2022/11/13 07:34:31;;;;;;;35.95;20.42;;;5.20;99.90;;;;;;5078570;28;20405;-67
2022/11/13 07:36:56;;;;;;;33.47;20.83;;;5.20;99.90;;;;;;5069604;28;20043;-64
2022/11/13 07:39:22;;;;;;;38.72;21.45;;;5.30;99.90;;;;;;5075719;28;20043;-65
2022/11/13 07:41:47;;;;;;;32.20;19.67;;;5.40;99.90;;;;;;5075461;28;20550;-65
2022/11/13 07:44:13;;;;;;;35.83;20.10;;;5.40;99.90;;;;;;5079523;28;20036;-65
2022/11/13 07:46:38;;;;;;;31.58;18.73;;;5.40;99.90;;;;;;5065928;28;20036;-65
2022/11/13 07:49:04;;;;;;;30.02;18.10;;;5.30;99.90;;;;;;5073917;28;20032;-65
2022/11/13 07:51:30;;;;;;;27.20;17.83;;;5.30;99.90;;;;;;5078364;28;20103;-65
2022/11/13 07:53:55;;;;;;;27.17;17.40;;;5.20;99.90;;;;;;5071472;28;20036;-66
2022/11/13 07:56:22;;;;;;;28.02;17.70;;;5.20;99.90;;;;;;5073770;28;20502;-66
2022/11/13 07:58:48;;;;;;;27.80;17.17;;;5.10;99.90;;;;;;5078100;28;20036;-66
2022/11/13 08:01:13;;;;;;;27.95;17.60;;;5.10;99.90;;;;;;5073274;28;20044;-65
2022/11/13 08:03:39;;;;;;;26.52;18.08;;;5.10;99.90;;;;;;5073765;28;20028;-64
2022/11/13 08:06:07;;;;;;;31.85;19.17;;;5.20;99.90;;;;;;5076879;28;20028;-66
2022/11/13 08:08:33;;;;;;;31.33;19.92;;;5.40;99.90;;;;;;5080748;28;20056;-66
2022/11/13 08:11:07;;;;;;;30.88;18.25;;;5.60;99.90;;;;;;5070020;28;20036;-66
2022/11/13 08:13:34;;;;;;;32.80;19.63;;;5.70;99.90;;;;;;5079209;28;20037;-66
2022/11/13 08:16:01;;;;;;;33.95;20.00;;;5.80;99.90;;;;;;5078880;28;20171;-66
2022/11/13 08:18:28;;;;;;;31.20;20.17;;;5.90;99.90;;;;;;5081361;28;20525;-66
2022/11/13 08:20:54;;;;;;;32.88;20.42;;;6.00;99.90;;;;;;5067759;28;20563;-66
2022/11/13 08:23:19;;;;;;;32.17;19.77;;;6.10;99.90;;;;;;5077563;28;20581;-66
2022/11/13 08:25:45;;;;;;;33.15;20.38;;;6.20;99.90;;;;;;5077271;28;20036;-67
2022/11/13 08:28:11;;;;;;;32.17;19.83;;;6.30;99.90;;;;;;5068736;28;20065;-67
2022/11/13 08:30:37;;;;;;;35.70;20.63;;;6.30;99.90;;;;;;5071011;28;20059;-67
2022/11/13 08:33:03;;;;;;;33.50;19.58;;;6.40;99.90;;;;;;5077086;28;20440;-68
2022/11/13 08:35:29;;;;;;;30.65;20.42;;;6.50;99.90;;;;;;5071134;28;20127;-68
2022/11/13 08:38:01;;;;;;;34.05;20.63;;;6.60;99.90;;;;;;5076021;28;20033;-69
2022/11/13 08:40:27;;;;;;;29.65;19.33;;;6.70;99.90;;;;;;5083158;28;20044;-68
2022/11/13 08:42:58;;;;;;;30.63;19.60;;;6.70;99.90;;;;;;5078926;28;20050;-67
2022/11/13 08:45:24;;;;;;;33.60;20.13;;;6.80;99.90;;;;;;5081500;28;20040;-67
2022/11/13 08:47:49;;;;;;;32.40;19.52;;;6.80;99.90;;;;;;5075696;28;20044;-68
2022/11/13 08:50:15;;;;;;;30.52;19.25;;;6.90;99.90;;;;;;5074276;28;20051;-67
2022/11/13 08:52:41;;;;;;;28.30;18.98;;;7.00;99.90;;;;;;5068660;28;20039;-66
2022/11/13 08:55:06;;;;;;;28.85;19.23;;;7.00;99.90;;;;;;5061450;28;20032;-67
2022/11/13 08:57:32;;;;;;;27.27;18.70;;;7.10;99.90;;;;;;5073750;28;20044;-67
2022/11/13 08:59:58;;;;;;;25.27;17.42;;;7.10;99.90;;;;;;5076563;28;20126;-67
2022/11/13 09:02:24;;;;;;;28.08;18.27;;;7.20;99.90;;;;;;5079026;28;20055;-66
2022/11/13 09:04:49;;;;;;;27.75;17.83;;;7.30;99.90;;;;;;5080129;28;20070;-66
2022/11/13 09:07:15;;;;;;;24.85;17.25;;;7.40;99.90;;;;;;5084846;28;20143;-67
2022/11/13 09:09:40;;;;;;;26.85;18.15;;;7.40;99.90;;;;;;5077257;28;20449;-67
2022/11/13 09:12:06;;;;;;;25.33;17.50;;;7.50;99.90;;;;;;5076706;28;20078;-67
2022/11/13 09:14:32;;;;;;;25.75;17.85;;;7.60;99.90;;;;;;5083175;28;20042;-67
2022/11/13 09:16:58;;;;;;;29.52;17.88;;;7.70;99.90;;;;;;5074702;28;20094;-67
2022/11/13 09:19:24;;;;;;;27.80;17.48;;;7.80;99.90;;;;;;5069509;28;20075;-67
2022/11/13 09:21:50;;;;;;;27.65;17.58;;;7.80;99.90;;;;;;5073062;28;20076;-67
2022/11/13 09:24:16;;;;;;;27.27;17.88;;;7.90;99.90;;;;;;5065868;28;20037;-67
2022/11/13 09:26:41;;;;;;;27.02;18.00;;;7.90;99.90;;;;;;5053741;28;20092;-67
2022/11/13 09:29:09;;;;;;;25.73;17.48;;;7.90;99.90;;;;;;5072579;28;20063;-67
2022/11/13 09:31:35;;;;;;;25.45;18.00;;;8.00;99.90;;;;;;5073389;28;20056;-67
2022/11/13 09:34:00;;;;;;;26.60;17.75;;;8.00;99.90;;;;;;5063505;28;20036;-67
2022/11/13 09:36:26;;;;;;;24.00;16.80;;;8.10;99.90;;;;;;5070983;28;20040;-67
2022/11/13 09:38:51;;;;;;;26.27;16.92;;;8.10;99.90;;;;;;5073405;28;20423;-71
2022/11/13 09:41:21;;;;;;;24.88;17.65;;;8.20;99.90;;;;;;5072767;28;20119;-71
2022/11/13 09:43:52;;;;;;;26.42;17.50;;;8.30;99.90;;;;;;5061743;28;20102;-70
2022/11/13 09:46:34;;;;;;;26.70;17.40;;;8.40;99.90;;;;;;5066526;28;20054;-70
2022/11/13 09:49:03;;;;;;;;;;;8.50;99.90;;;;;;5073245;28;20071;-72
2022/11/13 09:51:33;;;;;;;23.90;15.07;;;8.60;99.90;;;;;;5060866;28;19944;-70
2022/11/13 09:54:03;;;;;;;26.52;16.80;;;8.70;99.90;;;;;;5066701;28;20079;-70
2022/11/13 09:56:34;;;;;;;25.92;16.27;;;8.80;99.90;;;;;;5078499;28;20072;-69
2022/11/13 09:59:22;;;;;;;24.75;15.77;;;8.90;99.90;;;;;;5067915;28;20136;-67
2022/11/13 10:02:01;;;;;;;22.50;16.08;;;9.00;99.90;;;;;;5066586;28;20123;-66
2022/11/13 10:04:51;;;;;;;22.75;15.85;;;9.10;99.90;;;;;;5072316;28;20044;-68
2022/11/13 10:07:40;;;;;;;21.48;15.20;;;9.20;99.90;;;;;;5071363;28;20498;-68
2022/11/13 10:10:37;;;;;;;23.48;14.98;;;9.30;99.90;;;;;;5064702;28;20036;-66
2022/11/13 10:13:04;;;;;;;21.67;14.95;;;9.40;99.90;;;;;;5072411;28;20044;-68
2022/11/13 10:15:31;;;;;;;20.55;14.32;;;9.60;99.90;;;;;;5071758;28;20036;-67
2022/11/13 10:17:56;;;;;;;21.63;14.75;;;9.80;99.90;;;;;;5071694;28;20036;-67
2022/11/13 10:20:50;;;;;;;21.27;14.38;;;9.90;99.90;;;;;;5072087;28;20041;-67
2022/11/13 10:23:23;;;;;;;23.00;15.50;;;10.00;99.90;;;;;;5058271;28;20065;-68
2022/11/13 10:25:51;;;;;;;21.88;15.38;;;10.10;99.90;;;;;;5067151;28;20043;-68
2022/11/13 10:28:21;;;;;;;19.00;14.18;;;10.20;99.90;;;;;;5072031;28;20459;-68
2022/11/13 10:30:47;;;;;;;19.83;14.18;;;10.30;99.90;;;;;;5072038;28;20097;-68
2022/11/13 10:33:17;;;;;;;19.83;13.88;;;10.40;99.90;;;;;;5054636;28;20032;-71
2022/11/13 10:35:56;;;;;;;19.52;13.75;;;10.40;99.90;;;;;;5068129;28;20047;-71
2022/11/13 10:38:30;;;;;;;18.58;13.13;;;10.40;99.90;;;;;;5068183;28;20172;-71
2022/11/13 10:41:11;;;;;;;21.17;13.13;;;10.40;99.90;;;;;;5059456;28;20041;-71
2022/11/13 10:43:51;;;;;;;18.88;13.13;;;10.50;99.90;;;;;;5067714;28;20040;-71
2022/11/13 10:46:24;;;;;;;17.60;12.27;;;10.50;99.90;;;;;;5067590;28;20045;-71
2022/11/13 10:48:50;;;;;;;17.15;12.15;;;10.60;99.90;;;;;;5050829;28;20032;-71
2022/11/13 10:51:29;;;;;;;17.33;12.95;;;10.60;99.90;;;;;;5073651;28;20074;-71
2022/11/13 10:53:56;;;;;;;18.10;12.55;;;10.60;99.90;;;;;;5071662;28;20174;-72
2022/11/13 10:56:34;;;;;;;17.45;12.75;;;10.60;99.90;;;;;;5064930;28;20033;-70
2022/11/13 10:59:12;;;;;;;16.92;12.82;;;10.70;99.90;;;;;;5072861;28;20127;-70
2022/11/13 11:01:39;;;;;;;18.02;13.23;;;10.80;99.90;;;;;;5075453;28;20028;-67
2022/11/13 11:04:31;;;;;;;18.35;13.90;;;10.80;99.90;;;;;;5072054;28;20121;-67
2022/11/13 11:07:11;;;;;;;19.65;13.55;;;10.80;99.90;;;;;;5059960;28;20048;-68
2022/11/13 11:09:37;;;;;;;18.08;13.25;;;10.80;99.90;;;;;;5070480;28;20045;-67
2022/11/13 11:12:15;;;;;;;17.45;13.60;;;10.90;99.90;;;;;;5071231;28;20033;-67
2022/11/13 11:14:52;;;;;;;22.38;13.82;;;10.90;99.90;;;;;;5057776;28;20131;-68
2022/11/13 11:17:21;;;;;;;18.23;13.20;;;11.00;99.90;;;;;;5064004;28;20028;-69
2022/11/13 11:19:59;;;;;;;18.13;13.63;;;11.10;99.90;;;;;;5071950;28;20037;-68
2022/11/13 11:22:29;;;;;;;18.10;13.02;;;11.20;99.90;;;;;;5062704;28;20087;-69
2022/11/13 11:25:17;;;;;;;17.60;12.85;;;11.30;99.90;;;;;;5055957;28;20668;-69
2022/11/13 11:27:54;;;;;;;18.73;12.35;;;11.30;99.90;;;;;;5070704;28;20127;-68
2022/11/13 11:30:25;;;;;;;18.80;12.85;;;11.50;99.90;;;;;;5069060;28;20040;-70
2022/11/13 11:33:03;;;;;;;16.63;12.25;;;11.50;99.90;;;;;;5070991;28;20051;-69
2022/11/13 11:35:52;;;;;;;18.25;12.93;;;11.70;99.90;;;;;;5070010;28;20123;-68
2022/11/13 11:38:29;;;;;;;19.75;12.65;;;11.80;99.90;;;;;;5059495;28;20388;-66
2022/11/13 11:41:14;;;;;;;17.77;11.43;;;11.80;99.90;;;;;;5070654;28;20048;-68
2022/11/13 11:43:41;;;;;;;16.17;11.70;;;11.90;99.90;;;;;;5071420;28;20033;-68
2022/11/13 11:46:13;;;;;;;15.82;11.98;;;12.00;99.90;;;;;;5067696;28;20107;-67
2022/11/13 11:48:39;;;;;;;14.65;10.80;;;12.00;99.90;;;;;;5058269;28;20098;-67
2022/11/13 11:51:20;;;;;;;15.00;11.13;;;12.10;99.90;;;;;;5070606;28;20127;-68
2022/11/13 11:54:22;;;;;;;15.37;11.20;;;12.20;99.90;;;;;;5071257;28;20033;-68
2022/11/13 11:56:52;;;;;;;14.35;10.48;;;12.30;99.90;;;;;;5058949;28;20415;-66
2022/11/13 11:59:43;;;;;;;14.60;10.73;;;12.40;99.90;;;;;;5070798;28;20045;-67
2022/11/13 12:02:50;;;;;;;13.90;10.00;;;12.40;99.90;;;;;;5070214;28;20107;-68
2022/11/13 12:05:34;;;;;;;15.77;9.63;;;12.50;99.90;;;;;;5065532;28;20036;-68
2022/11/13 12:08:08;;;;;;;15.82;10.50;;;12.60;99.90;;;;;;5069296;28;20495;-66
2022/11/13 12:10:42;;;;;;;13.95;10.48;;;12.60;99.90;;;;;;5070921;28;20036;-66
2022/11/13 12:13:28;;;;;;;13.75;9.90;;;12.70;99.90;;;;;;5067580;28;20421;-66
2022/11/13 12:16:24;;;;;;;13.00;9.45;;;12.70;99.90;;;;;;5073150;28;20116;-68
2022/11/13 12:19:02;;;;;;;13.52;9.60;;;12.70;99.90;;;;;;5073932;28;20034;-68
2022/11/13 12:21:45;;;;;;;12.70;8.48;;;12.70;99.90;;;;;;5064084;28;20044;-67
2022/11/13 12:24:36;;;;;;;13.65;9.07;;;12.70;99.90;;;;;;5072059;28;20036;-68
2022/11/13 12:27:24;;;;;;;14.65;8.45;;;12.70;99.90;;;;;;5074625;28;20059;-68
2022/11/13 12:30:14;;;;;;;11.43;8.60;;;12.70;99.90;;;;;;5063602;28;20483;-68
2022/11/13 12:33:07;;;;;;;12.65;8.20;;;12.70;99.90;;;;;;5060974;28;20116;-66
2022/11/13 12:35:34;;;;;;;11.63;8.40;;;12.80;99.90;;;;;;5074311;28;20040;-66
2022/11/13 12:38:24;;;;;;;10.68;8.13;;;12.90;99.90;;;;;;5068048;28;20033;-67
2022/11/13 12:41:15;;;;;;;11.35;8.13;;;12.90;99.90;;;;;;5070859;28;20379;-67
2022/11/13 12:44:02;;;;;;;14.03;8.17;;;12.90;99.90;;;;;;5073131;28;20037;-67
2022/11/13 12:46:36;;;;;;;10.48;8.27;;;13.10;99.90;;;;;;5061221;28;20043;-67